createdAt,value
2023-02-21T00:00:00.435Z,101870
2023-02-21T00:01:00.475Z,101870
2023-02-21T00:02:00.494Z,101870
2023-02-21T00:03:00.485Z,101870
2023-02-21T00:04:00.472Z,101870
2023-02-21T00:05:00.561Z,101870
2023-02-21T00:06:00.517Z,101870
2023-02-21T00:07:00.460Z,101870
2023-02-21T00:08:00.845Z,101870
2023-02-21T00:09:00.452Z,101870
2023-02-21T00:10:00.461Z,101870
2023-02-21T00:11:00.472Z,101870
2023-02-21T00:12:00.420Z,101870
2023-02-21T00:13:00.434Z,101870
2023-02-21T00:14:00.454Z,101870
2023-02-21T00:15:00.423Z,101860
2023-02-21T00:16:00.491Z,101860
2023-02-21T00:17:00.444Z,101860
2023-02-21T00:18:00.453Z,101860
2023-02-21T00:19:00.814Z,101870
2023-02-21T00:20:00.450Z,101870
2023-02-21T00:21:00.476Z,101870
2023-02-21T00:22:00.464Z,101870
2023-02-21T00:23:00.494Z,101860
2023-02-21T00:24:00.437Z,101860
2023-02-21T00:25:00.458Z,101870
2023-02-21T00:26:00.420Z,101870
2023-02-21T00:27:00.636Z,101870
2023-02-21T00:28:00.538Z,101870
2023-02-21T00:29:00.427Z,101870
2023-02-21T00:30:00.454Z,101870
2023-02-21T00:31:00.477Z,101870
2023-02-21T00:32:00.456Z,101870
2023-02-21T00:33:00.606Z,101870
2023-02-21T00:34:00.433Z,101870
2023-02-21T00:35:00.655Z,101860
2023-02-21T00:36:00.449Z,101860
2023-02-21T00:37:00.461Z,101860
2023-02-21T00:38:00.453Z,101860
2023-02-21T00:39:00.454Z,101860
2023-02-21T00:40:00.450Z,101860
2023-02-21T00:41:00.460Z,101870
2023-02-21T00:42:00.463Z,101870
2023-02-21T00:43:00.587Z,101860
2023-02-21T00:44:00.511Z,101860
2023-02-21T00:45:00.453Z,101870
2023-02-21T00:46:00.502Z,101870
2023-02-21T00:47:00.443Z,101870
2023-02-21T00:48:00.423Z,101870
2023-02-21T00:49:00.753Z,101870
2023-02-21T00:50:00.423Z,101870
2023-02-21T00:51:00.423Z,101870
2023-02-21T00:52:00.459Z,101870
2023-02-21T00:53:00.422Z,101870
2023-02-21T00:54:00.470Z,101870
2023-02-21T00:55:00.438Z,101870
2023-02-21T00:56:00.452Z,101870
2023-02-21T00:57:00.449Z,101870
2023-02-21T00:58:00.450Z,101870
2023-02-21T00:59:00.429Z,101870
2023-02-21T01:00:00.423Z,101870
2023-02-21T01:01:00.494Z,101860
2023-02-21T01:02:00.424Z,101860
2023-02-21T01:03:00.553Z,101860
2023-02-21T01:04:00.511Z,101860
2023-02-21T01:05:00.442Z,101850
2023-02-21T01:06:00.443Z,101850
2023-02-21T01:07:00.435Z,101850
2023-02-21T01:08:00.454Z,101850
2023-02-21T01:09:00.477Z,101850
2023-02-21T01:10:00.518Z,101850
2023-02-21T01:11:00.485Z,101850
2023-02-21T01:12:00.451Z,101850
2023-02-21T01:13:00.456Z,101850
2023-02-21T01:14:00.483Z,101850
2023-02-21T01:15:00.425Z,101840
2023-02-21T01:16:00.498Z,101840
2023-02-21T01:17:12.422Z,101850
2023-02-21T01:18:00.434Z,101850
2023-02-21T01:19:00.499Z,101840
2023-02-21T01:20:00.489Z,101840
2023-02-21T01:21:00.458Z,101840
2023-02-21T01:22:01.059Z,101840
2023-02-21T01:23:00.462Z,101840
2023-02-21T01:24:00.812Z,101840
2023-02-21T01:25:00.561Z,101840
2023-02-21T01:26:00.429Z,101840
2023-02-21T01:27:00.548Z,101840
2023-02-21T01:28:00.577Z,101840
2023-02-21T01:29:00.424Z,101840
2023-02-21T01:30:00.460Z,101840
2023-02-21T01:31:00.484Z,101830
2023-02-21T01:32:00.492Z,101830
2023-02-21T01:33:00.455Z,101840
2023-02-21T01:34:00.469Z,101840
2023-02-21T01:35:00.434Z,101830
2023-02-21T01:36:00.426Z,101830
2023-02-21T01:37:00.431Z,101830
2023-02-21T01:38:00.454Z,101830
2023-02-21T01:39:00.467Z,101840
2023-02-21T01:40:00.437Z,101840
2023-02-21T01:41:00.668Z,101830
2023-02-21T01:42:00.771Z,101830
2023-02-21T01:43:00.452Z,101830
2023-02-21T01:44:01.462Z,101830
2023-02-21T01:45:10.373Z,101830
2023-02-21T01:46:00.902Z,101830
2023-02-21T01:47:00.450Z,101830
2023-02-21T01:48:00.450Z,101830
2023-02-21T01:49:03.634Z,101830
2023-02-21T01:50:02.600Z,101830
2023-02-21T01:51:01.792Z,101830
2023-02-21T01:52:01.508Z,101830
2023-02-21T01:53:02.576Z,101840
2023-02-21T01:54:00.714Z,101840
2023-02-21T01:55:01.244Z,101840
2023-02-21T01:56:00.532Z,101840
2023-02-21T01:57:01.625Z,101840
2023-02-21T01:58:00.555Z,101840
2023-02-21T01:59:00.906Z,101830
2023-02-21T02:00:03.775Z,101830
2023-02-21T02:01:00.468Z,101830
2023-02-21T02:02:02.696Z,101830
2023-02-21T02:03:03.371Z,101830
2023-02-21T02:04:01.368Z,101830
2023-02-21T02:05:01.074Z,101820
2023-02-21T02:06:09.500Z,101820
2023-02-21T02:07:00.575Z,101820
2023-02-21T02:08:00.452Z,101820
2023-02-21T02:09:10.398Z,101820
2023-02-21T02:10:00.548Z,101820
2023-02-21T02:11:08.012Z,101810
2023-02-21T02:12:10.386Z,101810
2023-02-21T02:13:00.450Z,101810
2023-02-21T02:14:09.400Z,101810
2023-02-21T02:15:10.412Z,101810
2023-02-21T02:16:01.493Z,101810
2023-02-21T02:17:10.383Z,101810
2023-02-21T02:18:08.899Z,101810
2023-02-21T02:19:10.422Z,101810
2023-02-21T02:20:10.376Z,101810
2023-02-21T02:21:10.478Z,101810
2023-02-21T02:22:00.508Z,101810
2023-02-21T02:23:07.800Z,101810
2023-02-21T02:24:10.384Z,101810
2023-02-21T02:25:10.380Z,101800
2023-02-21T02:26:10.380Z,101800
2023-02-21T02:27:10.421Z,101800
2023-02-21T02:28:07.794Z,101800
2023-02-21T02:29:10.379Z,101800
2023-02-21T02:30:10.438Z,101800
2023-02-21T02:31:10.584Z,101810
2023-02-21T02:32:10.546Z,101810
2023-02-21T02:33:10.369Z,101800
2023-02-21T02:34:01.496Z,101800
2023-02-21T02:35:08.244Z,101800
2023-02-21T02:36:05.031Z,101800
2023-02-21T02:37:08.033Z,101810
2023-02-21T02:38:07.901Z,101810
2023-02-21T02:39:09.075Z,101800
2023-02-21T02:40:10.445Z,101800
2023-02-21T02:41:07.167Z,101800
2023-02-21T02:42:10.365Z,101800
2023-02-21T02:43:07.504Z,101800
2023-02-21T02:44:05.826Z,101800
2023-02-21T02:45:04.719Z,101800
2023-02-21T02:46:05.620Z,101800
2023-02-21T02:47:01.999Z,101800
2023-02-21T02:48:05.048Z,101800
2023-02-21T02:49:04.985Z,101800
2023-02-21T02:50:00.803Z,101800
2023-02-21T02:51:02.197Z,101800
2023-02-21T02:52:02.207Z,101800
2023-02-21T02:53:01.371Z,101800
2023-02-21T02:54:00.777Z,101800
2023-02-21T02:55:01.941Z,101800
2023-02-21T02:56:02.079Z,101800
2023-02-21T02:57:01.893Z,101790
2023-02-21T02:58:01.243Z,101790
2023-02-21T02:59:04.089Z,101790
2023-02-21T03:00:00.780Z,101790
2023-02-21T03:01:10.387Z,101790
2023-02-21T03:02:10.391Z,101790
2023-02-21T03:03:01.455Z,101790
2023-02-21T03:04:10.386Z,101790
2023-02-21T03:05:00.452Z,101790
2023-02-21T03:06:10.393Z,101790
2023-02-21T03:07:10.387Z,101790
2023-02-21T03:08:10.363Z,101790
2023-02-21T03:09:00.437Z,101790
2023-02-21T03:10:01.457Z,101790
2023-02-21T03:11:03.499Z,101790
2023-02-21T03:12:04.505Z,101790
2023-02-21T03:13:02.366Z,101790
2023-02-21T03:14:07.744Z,101790
2023-02-21T03:15:06.731Z,101790
2023-02-21T03:16:07.837Z,101790
2023-02-21T03:17:02.978Z,101790
2023-02-21T03:18:10.354Z,101790
2023-02-21T03:19:03.834Z,101790
2023-02-21T03:20:01.602Z,101790
2023-02-21T03:21:04.748Z,101790
2023-02-21T03:22:04.475Z,101790
2023-02-21T03:23:01.472Z,101800
2023-02-21T03:24:01.531Z,101800
2023-02-21T03:25:01.600Z,101800
2023-02-21T03:26:02.551Z,101800
2023-02-21T03:27:03.289Z,101800
2023-02-21T03:28:00.731Z,101800
2023-02-21T03:29:01.071Z,101800
2023-02-21T03:30:03.312Z,101800
2023-02-21T03:31:02.967Z,101800
2023-02-21T03:32:10.410Z,101800
2023-02-21T03:33:00.463Z,101800
2023-02-21T03:34:00.459Z,101800
2023-02-21T03:35:00.515Z,101800
2023-02-21T03:36:02.842Z,101800
2023-02-21T03:37:00.448Z,101800
2023-02-21T03:38:00.431Z,101800
2023-02-21T03:39:00.460Z,101790
2023-02-21T03:40:00.985Z,101790
2023-02-21T03:41:00.465Z,101790
2023-02-21T03:42:00.644Z,101790
2023-02-21T03:43:01.379Z,101790
2023-02-21T03:44:00.436Z,101790
2023-02-21T03:45:00.475Z,101790
2023-02-21T03:46:00.495Z,101790
2023-02-21T03:47:00.429Z,101790
2023-02-21T03:48:00.673Z,101790
2023-02-21T03:49:00.427Z,101790
2023-02-21T03:50:00.672Z,101790
2023-02-21T03:51:00.502Z,101800
2023-02-21T03:52:00.442Z,101800
2023-02-21T03:53:00.450Z,101790
2023-02-21T03:54:00.461Z,101790
2023-02-21T03:55:00.589Z,101800
2023-02-21T03:56:00.445Z,101800
2023-02-21T03:57:00.418Z,101800
2023-02-21T03:58:00.439Z,101800
2023-02-21T03:59:00.666Z,101800
2023-02-21T04:00:00.552Z,101800
2023-02-21T04:01:00.537Z,101800
2023-02-21T04:02:00.533Z,101800
2023-02-21T04:03:00.433Z,101800
2023-02-21T04:04:00.433Z,101800
2023-02-21T04:05:00.584Z,101800
2023-02-21T04:06:00.467Z,101800
2023-02-21T04:07:00.834Z,101790
2023-02-21T04:08:00.473Z,101790
2023-02-21T04:09:00.495Z,101790
2023-02-21T04:10:00.426Z,101790
2023-02-21T04:11:00.441Z,101790
2023-02-21T04:12:00.489Z,101790
2023-02-21T04:13:00.425Z,101790
2023-02-21T04:14:00.437Z,101790
2023-02-21T04:15:00.482Z,101780
2023-02-21T04:16:00.463Z,101780
2023-02-21T04:17:00.458Z,101790
2023-02-21T04:18:00.424Z,101790
2023-02-21T04:19:00.457Z,101780
2023-02-21T04:20:00.443Z,101780
2023-02-21T04:21:00.436Z,101780
2023-02-21T04:22:00.474Z,101780
2023-02-21T04:23:03.542Z,101780
2023-02-21T04:24:00.472Z,101780
2023-02-21T04:25:01.184Z,101780
2023-02-21T04:26:00.442Z,101780
2023-02-21T04:27:00.479Z,101780
2023-02-21T04:28:00.431Z,101780
2023-02-21T04:29:00.944Z,101770
2023-02-21T04:30:00.761Z,101770
2023-02-21T04:31:00.468Z,101770
2023-02-21T04:32:00.538Z,101770
2023-02-21T04:33:00.459Z,101770
2023-02-21T04:34:11.244Z,101770
2023-02-21T04:35:00.449Z,101770
2023-02-21T04:36:00.442Z,101770
2023-02-21T04:37:00.462Z,101770
2023-02-21T04:38:00.455Z,101770
2023-02-21T04:39:00.433Z,101770
2023-02-21T04:40:00.453Z,101770
2023-02-21T04:41:00.458Z,101770
2023-02-21T04:42:00.430Z,101770
2023-02-21T04:43:00.432Z,101770
2023-02-21T04:44:00.471Z,101770
2023-02-21T04:45:00.932Z,101770
2023-02-21T04:46:00.506Z,101770
2023-02-21T04:47:00.485Z,101770
2023-02-21T04:48:00.436Z,101770
2023-02-21T04:49:00.558Z,101770
2023-02-21T04:50:00.467Z,101770
2023-02-21T04:51:06.976Z,101770
2023-02-21T04:52:00.522Z,101770
2023-02-21T04:53:00.440Z,101770
2023-02-21T04:54:00.970Z,101770
2023-02-21T04:55:00.472Z,101770
2023-02-21T04:56:00.468Z,101770
2023-02-21T04:57:00.610Z,101770
2023-02-21T04:58:00.459Z,101770
2023-02-21T04:59:00.461Z,101760
2023-02-21T05:00:00.504Z,101760
2023-02-21T05:01:00.465Z,101760
2023-02-21T05:02:02.753Z,101760
2023-02-21T05:03:00.592Z,101770
2023-02-21T05:04:00.630Z,101770
2023-02-21T05:05:00.458Z,101770
2023-02-21T05:06:00.435Z,101770
2023-02-21T05:07:00.788Z,101770
2023-02-21T05:08:00.467Z,101770
2023-02-21T05:09:00.850Z,101770
2023-02-21T05:10:00.454Z,101770
2023-02-21T05:11:00.450Z,101760
2023-02-21T05:12:00.444Z,101760
2023-02-21T05:13:00.466Z,101770
2023-02-21T05:14:00.505Z,101770
2023-02-21T05:15:00.432Z,101770
2023-02-21T05:16:00.458Z,101770
2023-02-21T05:17:00.448Z,101770
2023-02-21T05:18:00.454Z,101770
2023-02-21T05:19:00.437Z,101770
2023-02-21T05:20:00.558Z,101770
2023-02-21T05:21:01.338Z,101780
2023-02-21T05:22:01.561Z,101780
2023-02-21T05:23:08.238Z,101780
2023-02-21T05:24:00.461Z,101780
2023-02-21T05:25:00.425Z,101780
2023-02-21T05:26:01.746Z,101780
2023-02-21T05:27:00.482Z,101770
2023-02-21T05:28:00.449Z,101770
2023-02-21T05:29:00.683Z,101770
2023-02-21T05:30:00.429Z,101770
2023-02-21T05:31:01.351Z,101770
2023-02-21T05:32:00.494Z,101770
2023-02-21T05:33:00.433Z,101770
2023-02-21T05:34:00.438Z,101770
2023-02-21T05:35:00.553Z,101770
2023-02-21T05:36:00.819Z,101770
2023-02-21T05:37:00.457Z,101770
2023-02-21T05:38:00.469Z,101770
2023-02-21T05:39:00.628Z,101770
2023-02-21T05:40:00.516Z,101770
2023-02-21T05:41:00.462Z,101760
2023-02-21T05:42:00.459Z,101760
2023-02-21T05:43:00.448Z,101760
2023-02-21T05:44:00.937Z,101760
2023-02-21T05:45:00.434Z,101760
2023-02-21T05:46:00.472Z,101760
2023-02-21T05:47:00.464Z,101760
2023-02-21T05:48:00.457Z,101760
2023-02-21T05:49:01.829Z,101760
2023-02-21T05:50:00.575Z,101760
2023-02-21T05:51:00.431Z,101770
2023-02-21T05:52:00.435Z,101770
2023-02-21T05:53:00.900Z,101770
2023-02-21T05:54:00.475Z,101770
2023-02-21T05:55:00.472Z,101770
2023-02-21T05:56:00.452Z,101770
2023-02-21T05:57:00.490Z,101780
2023-02-21T05:58:00.445Z,101780
2023-02-21T05:59:00.424Z,101770
2023-02-21T06:00:00.437Z,101770
2023-02-21T06:01:00.745Z,101770
2023-02-21T06:02:00.481Z,101770
2023-02-21T06:03:02.407Z,101780
2023-02-21T06:04:00.450Z,101780
2023-02-21T06:05:00.426Z,101780
2023-02-21T06:06:01.670Z,101780
2023-02-21T06:07:00.421Z,101780
2023-02-21T06:08:00.423Z,101780
2023-02-21T06:09:00.606Z,101780
2023-02-21T06:10:00.444Z,101780
2023-02-21T06:11:00.422Z,101780
2023-02-21T06:12:00.435Z,101780
2023-02-21T06:13:00.443Z,101780
2023-02-21T06:14:01.418Z,101780
2023-02-21T06:15:00.426Z,101780
2023-02-21T06:16:00.539Z,101780
2023-02-21T06:17:00.476Z,101770
2023-02-21T06:18:00.429Z,101770
2023-02-21T06:19:00.864Z,101780
2023-02-21T06:20:00.564Z,101780
2023-02-21T06:21:00.437Z,101780
2023-02-21T06:22:00.459Z,101780
2023-02-21T06:23:00.460Z,101780
2023-02-21T06:24:00.667Z,101780
2023-02-21T06:25:00.447Z,101780
2023-02-21T06:26:00.446Z,101780
2023-02-21T06:27:00.455Z,101780
2023-02-21T06:28:00.463Z,101780
2023-02-21T06:29:00.438Z,101770
2023-02-21T06:30:00.739Z,101770
2023-02-21T06:31:00.661Z,101780
2023-02-21T06:32:00.486Z,101780
2023-02-21T06:33:00.432Z,101780
2023-02-21T06:34:00.443Z,101780
2023-02-21T06:35:00.588Z,101780
2023-02-21T06:36:10.374Z,101780
2023-02-21T06:37:00.442Z,101790
2023-02-21T06:38:00.425Z,101790
2023-02-21T06:39:00.465Z,101780
2023-02-21T06:40:00.454Z,101780
2023-02-21T06:41:04.372Z,101790
2023-02-21T06:42:00.424Z,101790
2023-02-21T06:43:00.462Z,101780
2023-02-21T06:44:00.475Z,101780
2023-02-21T06:45:00.425Z,101780
2023-02-21T06:46:00.655Z,101780
2023-02-21T06:47:00.432Z,101780
2023-02-21T06:48:00.464Z,101780
2023-02-21T06:49:00.803Z,101790
2023-02-21T06:50:00.439Z,101790
2023-02-21T06:51:00.540Z,101790
2023-02-21T06:52:00.486Z,101790
2023-02-21T06:53:00.458Z,101790
2023-02-21T06:54:00.507Z,101790
2023-02-21T06:55:00.463Z,101790
2023-02-21T06:56:00.471Z,101790
2023-02-21T06:57:00.462Z,101790
2023-02-21T06:58:00.435Z,101790
2023-02-21T06:59:00.494Z,101800
2023-02-21T07:00:00.438Z,101800
2023-02-21T07:01:00.564Z,101800
2023-02-21T07:02:00.481Z,101800
2023-02-21T07:03:00.452Z,101800
2023-02-21T07:04:00.462Z,101800
2023-02-21T07:05:00.469Z,101790
2023-02-21T07:06:00.471Z,101790
2023-02-21T07:07:00.443Z,101790
2023-02-21T07:08:01.077Z,101790
2023-02-21T07:09:00.484Z,101800
2023-02-21T07:10:00.477Z,101800
2023-02-21T07:11:00.450Z,101790
2023-02-21T07:12:00.435Z,101790
2023-02-21T07:13:00.435Z,101790
2023-02-21T07:14:00.759Z,101790
2023-02-21T07:15:00.688Z,101790
2023-02-21T07:16:01.244Z,101790
2023-02-21T07:17:00.468Z,101800
2023-02-21T07:18:00.502Z,101800
2023-02-21T07:19:00.436Z,101800
2023-02-21T07:20:00.498Z,101800
2023-02-21T07:21:00.462Z,101800
2023-02-21T07:22:00.463Z,101800
2023-02-21T07:23:00.432Z,101790
2023-02-21T07:24:00.454Z,101790
2023-02-21T07:25:00.449Z,101790
2023-02-21T07:26:00.460Z,101790
2023-02-21T07:27:00.510Z,101780
2023-02-21T07:28:00.452Z,101780
2023-02-21T07:29:00.481Z,101790
2023-02-21T07:30:00.437Z,101790
2023-02-21T07:31:00.547Z,101790
2023-02-21T07:32:00.497Z,101790
2023-02-21T07:33:00.447Z,101790
2023-02-21T07:34:00.457Z,101790
2023-02-21T07:35:00.452Z,101800
2023-02-21T07:36:00.458Z,101800
2023-02-21T07:37:00.428Z,101800
2023-02-21T07:38:00.435Z,101800
2023-02-21T07:39:00.456Z,101800
2023-02-21T07:40:00.460Z,101800
2023-02-21T07:41:01.713Z,101790
2023-02-21T07:42:00.467Z,101790
2023-02-21T07:43:00.440Z,101790
2023-02-21T07:44:00.432Z,101790
2023-02-21T07:45:00.565Z,101790
2023-02-21T07:46:00.516Z,101790
2023-02-21T07:47:00.472Z,101800
2023-02-21T07:48:00.432Z,101800
2023-02-21T07:49:00.543Z,101800
2023-02-21T07:50:00.517Z,101800
2023-02-21T07:51:00.442Z,101800
2023-02-21T07:52:00.455Z,101800
2023-02-21T07:53:00.464Z,101800
2023-02-21T07:54:00.452Z,101800
2023-02-21T07:55:00.465Z,101800
2023-02-21T07:56:00.467Z,101800
2023-02-21T07:57:00.448Z,101800
2023-02-21T07:58:00.546Z,101800
2023-02-21T07:59:00.458Z,101790
2023-02-21T08:00:00.456Z,101790
2023-02-21T08:01:00.456Z,101790
2023-02-21T08:02:00.528Z,101790
2023-02-21T08:03:00.526Z,101800
2023-02-21T08:04:00.443Z,101800
2023-02-21T08:05:00.482Z,101800
2023-02-21T08:06:00.466Z,101800
2023-02-21T08:07:01.241Z,101800
2023-02-21T08:08:00.460Z,101800
2023-02-21T08:09:00.592Z,101800
2023-02-21T08:10:00.462Z,101800
2023-02-21T08:11:00.502Z,101800
2023-02-21T08:12:00.460Z,101800
2023-02-21T08:13:00.453Z,101800
2023-02-21T08:14:00.431Z,101800
2023-02-21T08:15:00.481Z,101800
2023-02-21T08:16:00.551Z,101800
2023-02-21T08:17:00.432Z,101800
2023-02-21T08:18:00.435Z,101800
2023-02-21T08:19:00.432Z,101800
2023-02-21T08:20:00.503Z,101800
2023-02-21T08:21:00.433Z,101800
2023-02-21T08:22:00.447Z,101800
2023-02-21T08:23:00.462Z,101800
2023-02-21T08:24:00.599Z,101800
2023-02-21T08:25:00.468Z,101800
2023-02-21T08:26:01.465Z,101800
2023-02-21T08:27:00.443Z,101800
2023-02-21T08:28:00.429Z,101800
2023-02-21T08:29:00.449Z,101800
2023-02-21T08:30:00.497Z,101800
2023-02-21T08:31:00.428Z,101800
2023-02-21T08:32:00.677Z,101800
2023-02-21T08:33:00.744Z,101800
2023-02-21T08:34:00.654Z,101800
2023-02-21T08:35:00.511Z,101800
2023-02-21T08:36:00.437Z,101800
2023-02-21T08:37:00.448Z,101800
2023-02-21T08:38:00.468Z,101800
2023-02-21T08:39:00.669Z,101800
2023-02-21T08:40:00.983Z,101800
2023-02-21T08:41:00.569Z,101810
2023-02-21T08:42:00.447Z,101810
2023-02-21T08:43:00.724Z,101810
2023-02-21T08:44:00.450Z,101810
2023-02-21T08:45:00.494Z,101810
2023-02-21T08:46:00.474Z,101810
2023-02-21T08:47:00.532Z,101800
2023-02-21T08:48:00.465Z,101800
2023-02-21T08:49:00.822Z,101800
2023-02-21T08:50:00.535Z,101800
2023-02-21T08:51:02.058Z,101800
2023-02-21T08:52:00.464Z,101800
2023-02-21T08:53:00.463Z,101790
2023-02-21T08:54:00.964Z,101790
2023-02-21T08:55:00.444Z,101800
2023-02-21T08:56:00.558Z,101800
2023-02-21T08:57:00.494Z,101800
2023-02-21T08:58:00.426Z,101800
2023-02-21T08:59:00.462Z,101800
2023-02-21T09:00:00.797Z,101800
2023-02-21T09:01:00.473Z,101790
2023-02-21T09:02:00.728Z,101790
2023-02-21T09:03:00.432Z,101800
2023-02-21T09:04:01.133Z,101800
2023-02-21T09:05:00.545Z,101800
2023-02-21T09:06:00.438Z,101800
2023-02-21T09:07:00.443Z,101800
2023-02-21T09:08:00.496Z,101800
2023-02-21T09:09:00.456Z,101790
2023-02-21T09:10:01.336Z,101790
2023-02-21T09:11:00.628Z,101790
2023-02-21T09:12:00.430Z,101790
2023-02-21T09:13:01.155Z,101790
2023-02-21T09:14:00.423Z,101790
2023-02-21T09:15:00.440Z,101790
2023-02-21T09:16:01.301Z,101790
2023-02-21T09:17:00.644Z,101780
2023-02-21T09:18:00.536Z,101780
2023-02-21T09:19:00.449Z,101780
2023-02-21T09:20:01.327Z,101780
2023-02-21T09:21:00.478Z,101780
2023-02-21T09:22:01.786Z,101780
2023-02-21T09:23:00.431Z,101780
2023-02-21T09:24:00.943Z,101780
2023-02-21T09:25:00.789Z,101780
2023-02-21T09:26:00.434Z,101780
2023-02-21T09:27:00.423Z,101780
2023-02-21T09:28:00.523Z,101780
2023-02-21T09:29:00.484Z,101780
2023-02-21T09:30:01.411Z,101780
2023-02-21T09:31:00.434Z,101770
2023-02-21T09:32:00.914Z,101770
2023-02-21T09:33:00.426Z,101770
2023-02-21T09:34:00.466Z,101770
2023-02-21T09:35:00.431Z,101770
2023-02-21T09:36:00.451Z,101770
2023-02-21T09:37:03.547Z,101770
2023-02-21T09:38:00.742Z,101770
2023-02-21T09:39:00.465Z,101770
2023-02-21T09:40:00.436Z,101770
2023-02-21T09:41:02.832Z,101770
2023-02-21T09:42:00.519Z,101770
2023-02-21T09:43:02.094Z,101770
2023-02-21T09:44:01.653Z,101770
2023-02-21T09:45:01.197Z,101770
2023-02-21T09:46:04.350Z,101770
2023-02-21T09:47:03.155Z,101770
2023-02-21T09:48:05.083Z,101770
2023-02-21T09:49:01.459Z,101760
2023-02-21T09:50:02.804Z,101760
2023-02-21T09:51:03.050Z,101760
2023-02-21T09:52:01.033Z,101760
2023-02-21T09:53:00.666Z,101770
2023-02-21T09:54:02.228Z,101770
2023-02-21T09:55:06.254Z,101770
2023-02-21T09:56:04.230Z,101770
2023-02-21T09:57:02.274Z,101770
2023-02-21T09:58:00.891Z,101770
2023-02-21T09:59:00.537Z,101770
2023-02-21T10:00:00.436Z,101770
2023-02-21T10:01:05.438Z,101770
2023-02-21T10:02:10.387Z,101770
2023-02-21T10:03:01.451Z,101770
2023-02-21T10:04:10.395Z,101770
2023-02-21T10:05:10.382Z,101770
2023-02-21T10:06:06.697Z,101770
2023-02-21T10:07:08.633Z,101770
2023-02-21T10:08:05.824Z,101770
2023-02-21T10:09:10.383Z,101770
2023-02-21T10:10:05.920Z,101770
2023-02-21T10:11:04.867Z,101770
2023-02-21T10:12:06.636Z,101770
2023-02-21T10:13:03.676Z,101770
2023-02-21T10:14:05.023Z,101770
2023-02-21T10:15:01.433Z,101770
2023-02-21T10:16:01.454Z,101770
2023-02-21T10:17:10.368Z,101770
2023-02-21T10:18:10.359Z,101770
2023-02-21T10:19:05.194Z,101770
2023-02-21T10:20:03.861Z,101770
2023-02-21T10:21:01.555Z,101770
2023-02-21T10:22:02.745Z,101770
2023-02-21T10:23:01.377Z,101770
2023-02-21T10:24:02.733Z,101770
2023-02-21T10:25:01.683Z,101770
2023-02-21T10:26:03.001Z,101770
2023-02-21T10:27:10.380Z,101770
2023-02-21T10:28:00.437Z,101770
2023-02-21T10:29:01.548Z,101770
2023-02-21T10:30:01.415Z,101770
2023-02-21T10:31:03.929Z,101770
2023-02-21T10:32:01.228Z,101770
2023-02-21T10:33:00.594Z,101770
2023-02-21T10:34:02.026Z,101770
2023-02-21T10:35:00.471Z,101760
2023-02-21T10:36:00.458Z,101760
2023-02-21T10:37:10.439Z,101770
2023-02-21T10:38:02.508Z,101770
2023-02-21T10:39:09.413Z,101770
2023-02-21T10:40:04.668Z,101770
2023-02-21T10:41:02.688Z,101770
2023-02-21T10:42:00.475Z,101770
2023-02-21T10:43:03.687Z,101770
2023-02-21T10:44:09.264Z,101770
2023-02-21T10:45:01.563Z,101760
2023-02-21T10:46:10.432Z,101760
2023-02-21T10:47:03.148Z,101770
2023-02-21T10:48:03.046Z,101770
2023-02-21T10:49:10.356Z,101770
2023-02-21T10:50:03.119Z,101770
2023-02-21T10:51:05.507Z,101770
2023-02-21T10:52:03.124Z,101770
2023-02-21T10:53:00.515Z,101770
2023-02-21T10:54:10.373Z,101770
2023-02-21T10:55:00.434Z,101770
2023-02-21T10:56:10.394Z,101770
2023-02-21T10:57:01.801Z,101770
2023-02-21T10:58:08.997Z,101770
2023-02-21T10:59:01.997Z,101770
2023-02-21T11:00:00.945Z,101770
2023-02-21T11:01:10.415Z,101770
2023-02-21T11:02:01.759Z,101770
2023-02-21T11:03:04.672Z,101770
2023-02-21T11:04:05.548Z,101770
2023-02-21T11:05:10.365Z,101760
2023-02-21T11:06:00.452Z,101760
2023-02-21T11:07:00.410Z,101760
2023-02-21T11:08:03.701Z,101760
2023-02-21T11:09:01.392Z,101760
2023-02-21T11:10:00.469Z,101760
2023-02-21T11:11:00.438Z,101750
2023-02-21T11:12:00.438Z,101750
2023-02-21T11:13:01.854Z,101760
2023-02-21T11:14:10.359Z,101760
2023-02-21T11:15:00.409Z,101760
2023-02-21T11:16:10.419Z,101760
2023-02-21T11:17:05.360Z,101750
2023-02-21T11:18:04.039Z,101750
2023-02-21T11:19:04.757Z,101750
2023-02-21T11:20:00.571Z,101750
2023-02-21T11:21:09.996Z,101750
2023-02-21T11:22:00.452Z,101750
2023-02-21T11:23:00.481Z,101750
2023-02-21T11:24:02.098Z,101750
2023-02-21T11:25:10.388Z,101750
2023-02-21T11:26:10.365Z,101750
2023-02-21T11:27:00.430Z,101750
2023-02-21T11:28:10.370Z,101750
2023-02-21T11:29:09.107Z,101750
2023-02-21T11:30:01.543Z,101750
2023-02-21T11:31:00.491Z,101750
2023-02-21T11:32:08.754Z,101750
2023-02-21T11:33:00.911Z,101740
2023-02-21T11:34:01.868Z,101740
2023-02-21T11:35:03.087Z,101740
2023-02-21T11:36:10.365Z,101740
2023-02-21T11:37:01.445Z,101740
2023-02-21T11:38:02.418Z,101740
2023-02-21T11:39:10.385Z,101730
2023-02-21T11:40:00.473Z,101730
2023-02-21T11:41:01.045Z,101730
2023-02-21T11:42:01.766Z,101730
2023-02-21T11:43:10.391Z,101730
2023-02-21T11:44:00.442Z,101730
2023-02-21T11:45:10.375Z,101730
2023-02-21T11:46:00.477Z,101730
2023-02-21T11:47:10.395Z,101730
2023-02-21T11:48:03.840Z,101730
2023-02-21T11:49:05.397Z,101730
2023-02-21T11:50:04.503Z,101730
2023-02-21T11:51:03.081Z,101730
2023-02-21T11:52:00.414Z,101730
2023-02-21T11:53:05.633Z,101730
2023-02-21T11:54:01.825Z,101730
2023-02-21T11:55:00.581Z,101720
2023-02-21T11:56:10.378Z,101720
2023-02-21T11:57:08.009Z,101730
2023-02-21T11:58:03.668Z,101730
2023-02-21T11:59:05.356Z,101720
2023-02-21T12:00:01.416Z,101720
2023-02-21T12:01:04.122Z,101730
2023-02-21T12:02:10.486Z,101730
2023-02-21T12:03:10.384Z,101720
2023-02-21T12:04:07.792Z,101720
2023-02-21T12:05:09.224Z,101720
2023-02-21T12:06:07.915Z,101720
2023-02-21T12:07:06.513Z,101720
2023-02-21T12:08:10.360Z,101720
2023-02-21T12:09:03.693Z,101720
2023-02-21T12:10:07.721Z,101720
2023-02-21T12:11:10.386Z,101720
2023-02-21T12:12:08.934Z,101720
2023-02-21T12:13:07.726Z,101710
2023-02-21T12:14:10.361Z,101710
2023-02-21T12:15:10.376Z,101710
2023-02-21T12:16:06.484Z,101710
2023-02-21T12:17:08.823Z,101710
2023-02-21T12:18:10.397Z,101710
2023-02-21T12:19:03.661Z,101710
2023-02-21T12:20:07.812Z,101710
2023-02-21T12:21:05.824Z,101700
2023-02-21T12:22:09.576Z,101700
2023-02-21T12:23:08.780Z,101700
2023-02-21T12:24:10.359Z,101700
2023-02-21T12:25:10.409Z,101700
2023-02-21T12:26:10.362Z,101700
2023-02-21T12:27:05.239Z,101700
2023-02-21T12:28:08.417Z,101700